Time;durP1;ratioP1;P1;durP2;ratioP2;P2;SDS_P1;SDS_P2;PMS_P1;PMS_P2;Temp;Humidity;BMP_temperature;BMP_pressure;BME280_temperature;BME280_humidity;BME280_pressure;Samples;Min_cycle;Max_cycle;Signal;HPM_P1;HPM_P2
2023/04/06 09:02:16;;;;;;;13.90;9.10;;;;;;;14.23;81.86;99097.85;102201;1306;600524;-71
2023/04/06 09:04:46;;;;;;;14.10;8.00;;;;;;;14.13;81.29;99093.20;104706;1272;61915;-70
2023/04/06 09:07:18;;;;;;;10.10;8.50;;;;;;;14.07;81.10;99099.98;104440;1273;61120;-71
2023/04/06 09:09:50;;;;;;;16.50;7.70;;;;;;;14.02;81.32;99096.89;104262;1273;71839;-71
2023/04/06 09:12:24;;;;;;;10.80;7.70;;;;;;;14.00;81.82;99098.20;105323;1257;68089;-68
2023/04/06 09:14:53;;;;;;;15.20;8.00;;;;;;;13.97;82.79;99100.02;105016;1256;613200;-67
2023/04/06 09:17:24;;;;;;;11.60;8.60;;;;;;;13.93;83.75;99107.84;105534;1260;62289;-67
2023/04/06 09:19:52;;;;;;;11.40;8.70;;;;;;;13.85;84.66;99106.46;105388;1254;61779;-70
2023/04/06 09:22:21;;;;;;;10.00;8.90;;;;;;;13.75;86.19;99118.30;105482;1255;72957;-71
2023/04/06 09:24:53;;;;;;;16.20;7.90;;;;;;;13.64;88.24;99117.53;105527;1260;69287;-70
2023/04/06 09:27:34;;;;;;;9.50;7.50;;;;;;;13.49;89.39;99119.55;105399;1254;72826;-69
2023/04/06 09:30:05;;;;;;;11.20;7.80;;;;;;;13.28;91.16;99129.65;105401;1259;62422;-70
2023/04/06 09:32:50;;;;;;;12.60;6.40;;;;;;;13.12;92.94;99132.83;105418;1254;60262;-70
2023/04/06 09:35:21;;;;;;;16.60;8.40;;;;;;;12.95;94.81;99129.08;105421;1254;74173;-72
2023/04/06 09:37:51;;;;;;;12.30;7.20;;;;;;;12.82;96.69;99135.52;105461;1260;68478;-73
2023/04/06 09:40:21;;;;;;;17.20;7.30;;;;;;;12.74;98.07;99141.28;105887;1254;71880;-75
2023/04/06 09:42:54;;;;;;;18.40;7.80;;;;;;;12.67;99.50;99148.76;105829;1254;62954;-72
2023/04/06 09:45:22;;;;;;;14.60;8.60;;;;;;;12.59;100.00;99152.89;105845;1254;60384;-76
2023/04/06 09:47:53;;;;;;;11.50;7.30;;;;;;;12.54;100.00;99151.89;105760;1254;72900;-74
2023/04/06 09:50:23;;;;;;;;;;;;;;;12.50;100.00;99153.52;105580;1254;68595;-71
2023/04/06 09:52:53;;;;;;;15.80;8.80;;;;;;;12.45;100.00;99153.70;105551;1258;72117;-75
2023/04/06 09:55:30;;;;;;;18.00;7.90;;;;;;;12.41;100.00;99151.77;105804;1260;62726;-75
2023/04/06 09:58:07;;;;;;;10.00;8.30;;;;;;;12.40;100.00;99153.94;105622;1257;60176;-76
2023/04/06 10:01:02;;;;;;;14.10;9.20;;;;;;;12.38;100.00;99159.54;105791;1256;71691;-75
2023/04/06 10:03:47;;;;;;;12.60;9.10;;;;;;;12.40;100.00;99158.41;105471;1257;69757;-74
2023/04/06 10:06:18;;;;;;;17.70;9.00;;;;;;;12.38;100.00;99158.45;105591;1257;72845;-76
2023/04/06 10:08:46;;;;;;;9.50;7.30;;;;;;;12.41;100.00;99160.35;105516;1257;60474;-78
2023/04/06 10:11:18;;;;;;;9.40;7.40;;;;;;;12.42;100.00;99163.30;105797;1256;61925;-76
2023/04/06 10:13:48;;;;;;;16.50;9.00;;;;;;;12.41;100.00;99155.27;105808;1260;74282;-77
2023/04/06 10:16:17;;;;;;;13.50;8.30;;;;;;;12.34;100.00;99157.71;105545;1257;69650;-75
2023/04/06 10:18:58;;;;;;;12.50;7.40;;;;;;;12.26;100.00;99163.13;105702;1256;73067;-78
2023/04/06 10:21:27;;;;;;;12.70;9.00;;;;;;;12.22;100.00;99166.45;105193;1257;62820;-74
2023/04/06 10:24:00;;;;;;;17.00;7.30;;;;;;;12.22;100.00;99172.86;105515;1257;61097;-77
2023/04/06 10:26:29;;;;;;;17.10;5.90;;;;;;;12.24;100.00;99166.80;105758;1260;75500;-78
2023/04/06 10:29:03;;;;;;;12.40;6.10;;;;;;;12.25;100.00;99170.73;105967;1257;69682;-77
2023/04/06 10:31:31;;;;;;;10.80;7.40;;;;;;;12.22;100.00;99173.17;105836;1260;74250;-76
2023/04/06 10:34:01;;;;;;;8.00;5.80;;;;;;;12.19;100.00;99178.73;105690;1257;61557;-68
2023/04/06 10:36:33;;;;;;;8.80;6.10;;;;;;;12.19;100.00;99178.45;105471;1258;61191;-65
2023/04/06 10:39:03;;;;;;;13.90;7.30;;;;;;;12.17;100.00;99181.87;105495;1257;74468;-67
2023/04/06 10:41:51;;;;;;;12.60;7.10;;;;;;;12.13;100.00;99180.59;105407;1257;69833;-66
2023/04/06 10:44:21;;;;;;;9.60;7.50;;;;;;;12.08;100.00;99184.04;105438;1261;73181;-64
2023/04/06 10:46:56;;;;;;;13.90;8.00;;;;;;;12.05;100.00;99189.31;105484;1256;63604;-65
2023/04/06 10:49:26;;;;;;;9.20;6.60;;;;;;;12.03;100.00;99184.42;105319;1261;60102;-73
2023/04/06 10:51:55;;;;;;;10.10;7.70;;;;;;;12.04;100.00;99187.59;105546;1258;72936;-71
2023/04/06 10:54:25;;;;;;;12.10;7.70;;;;;;;12.04;100.00;99185.00;105697;1258;68111;-74
2023/04/06 10:56:54;;;;;;;19.60;7.40;;;;;;;12.10;100.00;99194.49;105674;1260;71819;-74
2023/04/06 10:59:24;;;;;;;26.00;8.10;;;;;;;12.16;100.00;99200.48;105452;1257;62687;-64
2023/04/06 11:01:54;;;;;;;17.60;7.60;;;;;;;12.19;100.00;99204.62;105374;1257;61299;-65
2023/04/06 11:04:23;;;;;;;15.60;8.30;;;;;;;12.17;100.00;99203.76;105436;1260;73171;-64
2023/04/06 11:06:53;;;;;;;19.70;8.10;;;;;;;12.15;100.00;99203.16;105415;1260;68641;-69
2023/04/06 11:09:26;;;;;;;19.30;8.20;;;;;;;12.15;100.00;99209.95;105247;1258;72607;-67
2023/04/06 11:11:55;;;;;;;15.50;7.80;;;;;;;12.12;100.00;99213.52;105539;1255;62795;-66
2023/04/06 11:14:26;;;;;;;15.90;8.40;;;;;;;12.14;100.00;99213.89;105552;1261;61870;-69
2023/04/06 11:16:56;;;;;;;11.80;9.10;;;;;;;12.16;100.00;99216.38;105234;1256;74371;-67
2023/04/06 11:19:25;;;;;;;13.30;9.80;;;;;;;12.13;100.00;99215.98;105517;1258;68670;-64
2023/04/06 11:21:54;;;;;;;15.90;9.00;;;;;;;12.05;100.00;99221.66;105329;1257;73999;-65
2023/04/06 11:24:25;;;;;;;12.10;10.20;;;;;;;12.00;100.00;99222.97;105450;1257;61236;-64
2023/04/06 11:26:55;;;;;;;12.50;9.70;;;;;;;11.92;100.00;99226.89;105310;1257;61403;-64
2023/04/06 11:29:26;;;;;;;20.30;10.70;;;;;;;11.89;100.00;99228.10;105395;1257;72335;-64
2023/04/06 11:32:07;;;;;;;15.00;10.60;;;;;;;11.86;100.00;99227.38;105348;1260;66137;-67
2023/04/06 11:34:40;;;;;;;17.00;9.70;;;;;;;11.83;100.00;99227.22;106045;1257;74541;-78
2023/04/06 11:37:10;;;;;;;16.00;8.80;;;;;;;11.82;100.00;99225.29;106136;1257;61966;-82
2023/04/06 11:39:42;;;;;;;11.00;8.50;;;;;;;11.80;100.00;99226.88;106185;1257;60882;-76
2023/04/06 11:42:10;;;;;;;12.40;8.90;;;;;;;11.82;100.00;99232.93;105726;1261;74071;-77
2023/04/06 11:44:49;;;;;;;14.60;8.30;;;;;;;11.84;100.00;99230.68;105856;1258;68954;-77
2023/04/06 11:47:19;;;;;;;13.20;9.20;;;;;;;11.85;100.00;99232.66;105842;1256;73448;-74
2023/04/06 11:49:50;;;;;;;15.80;9.60;;;;;;;11.85;100.00;99225.23;106167;1262;62380;-73
2023/04/06 11:52:26;;;;;;;11.80;10.30;;;;;;;11.89;100.00;99232.95;105685;1261;60755;-73
2023/04/06 11:54:57;;;;;;;14.10;8.70;;;;;;;11.94;100.00;99235.09;105990;1256;72837;-70
2023/04/06 11:57:25;;;;;;;16.70;9.60;;;;;;;11.98;100.00;99236.72;105778;1260;68981;-72
2023/04/06 11:59:55;;;;;;;14.50;11.00;;;;;;;11.99;100.00;99235.96;105489;1256;73120;-73
2023/04/06 12:02:23;;;;;;;15.30;12.30;;;;;;;12.04;100.00;99235.42;105666;1257;63520;-71
2023/04/06 12:04:52;;;;;;;15.80;11.40;;;;;;;12.07;100.00;99235.05;105372;1257;61606;-72
2023/04/06 12:07:21;;;;;;;12.30;11.10;;;;;;;12.08;100.00;99237.36;105157;1262;74820;-76
2023/04/06 12:09:49;;;;;;;15.30;11.70;;;;;;;12.10;100.00;99236.27;105591;1257;67959;-72
2023/04/06 12:12:18;;;;;;;11.50;10.30;;;;;;;12.07;100.00;99236.49;105718;1257;73662;-71
2023/04/06 12:14:46;;;;;;;13.10;8.80;;;;;;;12.04;100.00;99241.40;105424;1257;61492;-78
2023/04/06 12:17:15;;;;;;;11.50;7.10;;;;;;;12.03;100.00;99238.27;105310;1257;61868;-78
2023/04/06 12:19:43;;;;;;;7.50;6.80;;;;;;;12.04;100.00;99237.84;105383;1260;74861;-75
2023/04/06 12:22:12;;;;;;;12.00;7.20;;;;;;;12.05;100.00;99231.64;105342;1257;68905;-80
2023/04/06 12:24:41;;;;;;;13.10;7.10;;;;;;;12.04;100.00;99233.90;105333;1260;72520;-75
2023/04/06 12:27:11;;;;;;;10.30;6.80;;;;;;;12.03;100.00;99238.27;105526;1256;62593;-79
2023/04/06 12:29:39;;;;;;;6.90;5.70;;;;;;;12.03;100.00;99235.36;105466;1260;61880;-79
2023/04/06 12:32:08;;;;;;;7.60;6.80;;;;;;;12.03;100.00;99236.65;105165;1260;74124;-76
2023/04/06 12:34:37;;;;;;;9.50;6.60;;;;;;;11.98;100.00;99241.39;105331;1257;67868;-75
2023/04/06 12:37:06;;;;;;;8.90;6.00;;;;;;;11.96;100.00;99239.07;105878;1257;74359;-79
2023/04/06 12:39:35;;;;;;;11.40;7.70;;;;;;;11.94;100.00;99237.52;105636;1257;63688;-76
2023/04/06 12:42:04;;;;;;;6.70;5.90;;;;;;;11.93;100.00;99235.25;105855;1257;61347;-72
2023/04/06 12:44:32;;;;;;;14.00;6.80;;;;;;;11.92;100.00;99238.49;105800;1257;72809;-74
2023/04/06 12:47:02;;;;;;;7.80;6.00;;;;;;;11.92;100.00;99238.38;105848;1257;70580;-70
2023/04/06 12:49:31;;;;;;;9.90;6.30;;;;;;;11.95;100.00;99236.66;106038;1257;73003;-73
2023/04/06 12:52:05;;;;;;;9.90;6.50;;;;;;;11.98;100.00;99242.92;105848;1257;60862;-73
2023/04/06 12:54:36;;;;;;;11.90;8.20;;;;;;;11.99;100.00;99238.11;105688;1257;59897;-71
2023/04/06 12:57:04;;;;;;;10.70;7.50;;;;;;;11.96;100.00;99238.33;105788;1257;72025;-74
2023/04/06 12:59:35;;;;;;;8.80;6.90;;;;;;;11.93;100.00;99241.35;106270;1257;69469;-77
2023/04/06 13:02:05;;;;;;;13.80;6.30;;;;;;;11.93;100.00;99244.21;107209;1257;73402;-73
2023/04/06 13:04:34;;;;;;;11.70;7.70;;;;;;;11.92;100.00;99241.52;106440;1257;61441;-73
2023/04/06 13:07:04;;;;;;;15.70;8.20;;;;;;;11.92;100.00;99244.95;105575;1257;60781;-73
2023/04/06 13:09:32;;;;;;;12.60;10.70;;;;;;;11.91;100.00;99240.54;105812;1257;73829;-72
2023/04/06 13:12:01;;;;;;;15.60;10.40;;;;;;;11.94;100.00;99239.98;105793;1260;67815;-75
2023/04/06 13:14:31;;;;;;;19.40;13.80;;;;;;;12.01;100.00;99244.86;105789;1258;73389;-73
2023/04/06 13:17:00;;;;;;;17.20;14.20;;;;;;;12.05;100.00;99246.46;105763;1262;60867;-72
2023/04/06 13:19:31;;;;;;;23.90;16.50;;;;;;;12.06;100.00;99245.60;105817;1257;60460;-72
2023/04/06 13:22:00;;;;;;;17.40;14.20;;;;;;;12.08;100.00;99245.77;105362;1257;75707;-75
2023/04/06 13:24:29;;;;;;;15.30;10.90;;;;;;;12.09;100.00;99245.48;105641;1257;69446;-73
2023/04/06 13:26:57;;;;;;;14.10;10.00;;;;;;;12.05;100.00;99246.03;105587;1262;72885;-74
2023/04/06 13:29:27;;;;;;;16.00;10.00;;;;;;;12.02;100.00;99249.22;105618;1257;62145;-73
2023/04/06 13:31:55;;;;;;;11.70;9.10;;;;;;;12.00;100.00;99251.91;105661;1257;60477;-71
2023/04/06 13:34:24;;;;;;;14.80;9.90;;;;;;;12.03;100.00;99248.73;105552;1257;74110;-70
2023/04/06 13:36:52;;;;;;;16.10;9.10;;;;;;;12.05;100.00;99249.05;105515;1257;69529;-74
2023/04/06 13:39:32;;;;;;;14.80;10.10;;;;;;;12.07;100.00;99248.89;105640;1257;71614;-73
2023/04/06 13:42:02;;;;;;;11.30;9.30;;;;;;;12.11;100.00;99244.68;105697;1258;61583;-72
2023/04/06 13:44:33;;;;;;;12.70;9.50;;;;;;;12.17;100.00;99244.35;105572;1256;60644;-78
2023/04/06 13:47:01;;;;;;;16.70;9.60;;;;;;;12.20;100.00;99248.13;105629;1258;72384;-73
2023/04/06 13:49:31;;;;;;;14.30;8.80;;;;;;;12.21;100.00;99247.80;105611;1261;68480;-75
2023/04/06 13:52:03;;;;;;;11.80;8.30;;;;;;;12.21;100.00;99247.75;105621;1260;74167;-78
2023/04/06 13:54:32;;;;;;;8.90;7.60;;;;;;;12.22;100.00;99249.91;105654;1257;62406;-72
2023/04/06 13:57:09;;;;;;;12.30;8.30;;;;;;;12.24;100.00;99249.95;105290;1257;60913;-82
2023/04/06 13:59:39;;;;;;;10.20;7.60;;;;;;;12.22;100.00;99248.52;105517;1256;72881;-74
2023/04/06 14:02:09;;;;;;;15.60;8.70;;;;;;;12.25;100.00;99249.90;105660;1260;67845;-83
2023/04/06 14:04:38;;;;;;;14.00;10.10;;;;;;;12.27;100.00;99248.08;105662;1257;72168;-85
2023/04/06 14:07:07;;;;;;;10.60;9.30;;;;;;;12.28;100.00;99249.30;105725;1260;63628;-70
2023/04/06 14:09:35;;;;;;;12.40;10.80;;;;;;;12.32;100.00;99249.52;105203;1257;60472;-74
2023/04/06 14:12:04;;;;;;;11.70;10.50;;;;;;;12.39;100.00;99247.89;105605;1260;75376;-76
2023/04/06 14:14:32;;;;;;;16.30;10.20;;;;;;;12.43;100.00;99245.94;105205;1256;67169;-72
2023/04/06 14:17:05;;;;;;;14.20;10.80;;;;;;;12.43;100.00;99245.17;105190;1260;72775;-71
2023/04/06 14:19:38;;;;;;;14.00;11.00;;;;;;;12.41;100.00;99246.65;105158;1256;63010;-74
2023/04/06 14:22:06;;;;;;;18.80;11.50;;;;;;;12.37;100.00;99248.00;105521;1257;60625;-72
2023/04/06 14:24:37;;;;;;;11.80;10.50;;;;;;;12.36;100.00;99249.25;105502;1260;74677;-73
2023/04/06 14:27:06;;;;;;;18.30;12.20;;;;;;;12.37;100.00;99247.41;105266;1257;69428;-77
2023/04/06 14:29:37;;;;;;;16.70;11.10;;;;;;;12.37;100.00;99239.96;105787;1257;73266;-77
2023/04/06 14:32:08;;;;;;;23.50;14.00;;;;;;;12.44;100.00;99241.23;105613;1257;61090;-80
2023/04/06 14:34:38;;;;;;;28.00;13.50;;;;;;;12.53;100.00;99245.71;105577;1257;60479;-80
2023/04/06 14:37:06;;;;;;;20.40;12.80;;;;;;;12.54;100.00;99247.64;105502;1260;74356;-78
2023/04/06 14:39:35;;;;;;;16.10;12.00;;;;;;;12.54;100.00;99249.31;105710;1256;67765;-79
2023/04/06 14:42:03;;;;;;;13.10;11.20;;;;;;;12.50;100.00;99250.04;105547;1260;71288;-79
2023/04/06 14:44:33;;;;;;;16.70;12.00;;;;;;;12.51;100.00;99252.98;105640;1256;63497;-77
2023/04/06 14:47:03;;;;;;;14.50;11.00;;;;;;;12.53;100.00;99258.01;105796;1256;60470;-77
2023/04/06 14:49:33;;;;;;;13.20;11.00;;;;;;;12.60;100.00;99258.52;105515;1257;74026;-80
2023/04/06 14:52:02;;;;;;;15.70;12.50;;;;;;;12.63;100.00;99259.44;105550;1257;66443;-75
2023/04/06 14:54:34;;;;;;;18.40;12.50;;;;;;;12.66;100.00;99260.64;105582;1257;72168;-71
2023/04/06 14:57:03;;;;;;;16.30;13.00;;;;;;;12.64;100.00;99257.71;105481;1256;63851;-72
2023/04/06 14:59:33;;;;;;;17.70;12.00;;;;;;;12.63;100.00;99260.84;105919;1260;62126;-73
2023/04/06 15:02:06;;;;;;;15.00;12.00;;;;;;;12.59;100.00;99261.83;105693;1261;75485;-70
2023/04/06 15:04:36;;;;;;;16.30;11.50;;;;;;;12.55;100.00;99260.59;105782;1257;69481;-74
2023/04/06 15:07:05;;;;;;;21.40;14.00;;;;;;;12.55;100.00;99263.39;105892;1260;71159;-72
2023/04/06 15:09:33;;;;;;;18.30;12.40;;;;;;;12.60;100.00;99266.08;105665;1256;62998;-74
2023/04/06 15:12:01;;;;;;;15.10;11.20;;;;;;;12.62;100.00;99265.16;105868;1257;61670;-75
2023/04/06 15:14:30;;;;;;;13.90;12.20;;;;;;;12.64;100.00;99257.61;105764;1258;73965;-73
2023/04/06 15:16:58;;;;;;;21.60;13.70;;;;;;;12.66;100.00;99262.40;106165;1256;69408;-75
2023/04/06 15:19:26;;;;;;;16.80;13.00;;;;;;;12.62;100.00;99264.30;105756;1256;74331;-80
2023/04/06 15:21:55;;;;;;;15.60;12.60;;;;;;;12.58;100.00;99264.73;105811;1257;60821;-79
2023/04/06 15:24:25;;;;;;;23.50;12.50;;;;;;;12.54;100.00;99265.39;105859;1260;61216;-79
2023/04/06 15:26:53;;;;;;;18.70;12.60;;;;;;;12.49;100.00;99271.61;105861;1258;73325;-76
2023/04/06 15:29:22;;;;;;;13.90;11.60;;;;;;;12.48;100.00;99274.19;105948;1257;67743;-81
2023/04/06 15:31:50;;;;;;;15.60;11.00;;;;;;;12.52;100.00;99270.84;105750;1257;75007;-83
2023/04/06 15:34:18;;;;;;;19.20;13.50;;;;;;;12.56;100.00;99269.81;105738;1257;64123;-79
2023/04/06 15:36:47;;;;;;;19.10;13.10;;;;;;;12.64;100.00;99273.90;105925;1257;62084;-81
2023/04/06 15:39:16;;;;;;;23.00;15.90;;;;;;;12.67;100.00;99272.59;105679;1257;74985;-75
2023/04/06 15:41:45;;;;;;;24.20;17.60;;;;;;;12.66;100.00;99273.08;105702;1260;68300;-78
2023/04/06 15:44:12;;;;;;;20.00;15.90;;;;;;;12.65;100.00;99271.30;105844;1257;71285;-74
2023/04/06 15:46:41;;;;;;;19.10;15.20;;;;;;;12.60;100.00;99273.36;105326;1258;62585;-75
2023/04/06 15:49:10;;;;;;;19.50;13.40;;;;;;;12.52;100.00;99275.27;105539;1257;61476;-76
2023/04/06 15:51:39;;;;;;;14.80;11.30;;;;;;;12.49;100.00;99273.48;105689;1256;73897;-74
2023/04/06 15:54:07;;;;;;;17.40;11.90;;;;;;;12.54;100.00;99277.75;105675;1257;68540;-75
2023/04/06 15:56:36;;;;;;;12.10;10.20;;;;;;;12.55;100.00;99272.63;105548;1260;73194;-77
2023/04/06 15:59:09;;;;;;;21.60;11.70;;;;;;;12.58;100.00;99275.41;105560;1257;60575;-73
2023/04/06 16:01:41;;;;;;;17.00;11.20;;;;;;;12.59;100.00;99276.28;105765;1256;60478;-75
2023/04/06 16:04:11;;;;;;;22.40;11.90;;;;;;;12.56;100.00;99283.20;105711;1258;75659;-74
2023/04/06 16:06:40;;;;;;;15.60;11.70;;;;;;;12.54;100.00;99279.74;105719;1256;67548;-72
2023/04/06 16:09:08;;;;;;;13.80;10.50;;;;;;;12.57;100.00;99283.14;105633;1256;73891;-74
2023/04/06 16:11:36;;;;;;;12.00;9.90;;;;;;;12.59;100.00;99284.80;105805;1255;61926;-75
2023/04/06 16:14:04;;;;;;;16.50;10.90;;;;;;;12.61;100.00;99285.08;105848;1256;60486;-76
2023/04/06 16:16:36;;;;;;;12.60;11.10;;;;;;;12.63;100.00;99284.80;105776;1259;75155;-77
2023/04/06 16:19:09;;;;;;;19.20;12.10;;;;;;;12.67;100.00;99287.59;105794;1257;68109;-79
2023/04/06 16:21:39;;;;;;;15.80;11.90;;;;;;;12.70;100.00;99286.41;105954;1257;74723;-75
2023/04/06 16:24:11;;;;;;;13.90;10.30;;;;;;;12.69;100.00;99282.41;105665;1257;62707;-80
2023/04/06 16:26:43;;;;;;;16.60;9.20;;;;;;;12.67;100.00;99284.95;105504;1257;60299;-72
2023/04/06 16:29:12;;;;;;;17.50;9.80;;;;;;;12.66;100.00;99278.98;105737;1259;75484;-75
2023/04/06 16:31:42;;;;;;;13.90;10.30;;;;;;;12.68;100.00;99281.23;105539;1257;66921;-75
2023/04/06 16:34:12;;;;;;;12.30;10.30;;;;;;;12.74;100.00;99282.52;105675;1257;74170;-75
2023/04/06 16:36:41;;;;;;;12.10;10.90;;;;;;;12.74;100.00;99286.94;105555;1257;61912;-75
2023/04/06 16:39:10;;;;;;;18.40;11.20;;;;;;;12.76;100.00;99290.11;105735;1259;60460;-75
2023/04/06 16:41:41;;;;;;;16.70;10.90;;;;;;;12.77;100.00;99293.67;105580;1261;75480;-73
2023/04/06 16:44:10;;;;;;;13.30;10.80;;;;;;;12.72;100.00;99299.08;105823;1259;67415;-72
2023/04/06 16:46:40;;;;;;;15.50;10.40;;;;;;;12.68;100.00;99298.39;105814;1257;74576;-69
2023/04/06 16:49:08;;;;;;;13.30;10.30;;;;;;;12.65;100.00;99298.99;105726;1257;62840;-71
2023/04/06 16:51:40;;;;;;;15.50;11.80;;;;;;;12.63;100.00;99301.04;105257;1256;61052;-73
2023/04/06 16:54:08;;;;;;;14.20;9.80;;;;;;;12.59;100.00;99301.11;105878;1259;75497;-73
2023/04/06 16:56:36;;;;;;;21.40;13.50;;;;;;;12.56;100.00;99305.73;105741;1257;69075;-79
2023/04/06 16:59:07;;;;;;;22.50;13.20;;;;;;;12.50;100.00;99308.28;105639;1260;73497;-78
2023/04/06 17:01:35;;;;;;;28.10;13.50;;;;;;;12.45;100.00;99308.72;105538;1257;62826;-80
2023/04/06 17:04:05;;;;;;;25.50;13.40;;;;;;;12.41;100.00;99313.86;105930;1259;60508;-88
2023/04/06 17:06:34;;;;;;;26.40;14.50;;;;;;;12.39;100.00;99316.77;105602;1257;75350;-85
2023/04/06 17:09:02;;;;;;;14.40;10.00;;;;;;;12.41;100.00;99325.23;106100;1257;67805;-81
2023/04/06 17:11:31;;;;;;;13.00;8.80;;;;;;;12.40;100.00;99335.71;105702;1256;73254;-82
2023/04/06 17:14:15;;;;;;;13.70;8.70;;;;;;;12.35;100.00;99343.95;105590;1257;63882;-73
2023/04/06 17:16:43;;;;;;;11.30;9.30;;;;;;;12.30;100.00;99352.38;105791;1256;60636;-76
2023/04/06 17:19:14;;;;;;;13.40;9.90;;;;;;;12.23;100.00;99358.08;105608;1260;74281;-73
2023/04/06 17:21:43;;;;;;;11.70;9.20;;;;;;;12.09;100.00;99363.40;105750;1257;67771;-71
2023/04/06 17:24:12;;;;;;;12.20;10.10;;;;;;;11.97;100.00;99367.04;105180;1257;73245;-72
2023/04/06 17:26:41;;;;;;;12.80;8.50;;;;;;;11.93;100.00;99369.41;105636;1256;61106;-67
2023/04/06 17:29:10;;;;;;;12.70;9.60;;;;;;;11.86;100.00;99373.39;105298;1257;62317;-69
2023/04/06 17:31:44;;;;;;;;;;;;;;;11.76;100.00;99373.78;105137;1260;74966;-69
2023/04/06 17:34:12;;;;;;;12.50;9.90;;;;;;;11.71;100.00;99375.59;105352;1257;69666;-68
2023/04/06 17:36:40;;;;;;;10.80;8.70;;;;;;;11.67;100.00;99378.03;105629;1257;72979;-71
2023/04/06 17:39:10;;;;;;;11.70;8.40;;;;;;;11.62;100.00;99381.89;105793;1257;61879;-72
2023/04/06 17:41:38;;;;;;;13.80;9.70;;;;;;;11.62;100.00;99385.02;105703;1257;62076;-76
2023/04/06 17:44:10;;;;;;;12.50;10.40;;;;;;;11.66;100.00;99389.13;105633;1259;75373;-72
2023/04/06 17:46:38;;;;;;;12.80;10.20;;;;;;;11.67;100.00;99392.90;105412;1260;68045;-74
2023/04/06 17:49:08;;;;;;;12.10;9.70;;;;;;;11.64;100.00;99398.23;105502;1257;73541;-72
2023/04/06 17:51:37;;;;;;;11.70;9.90;;;;;;;11.60;100.00;99400.15;105718;1257;63274;-71
2023/04/06 17:54:08;;;;;;;16.80;11.90;;;;;;;11.57;100.00;99396.27;105771;1260;62046;-71
2023/04/06 17:56:37;;;;;;;17.30;11.80;;;;;;;11.58;100.00;99404.67;105455;1257;75551;-70
2023/04/06 17:59:09;;;;;;;18.10;13.10;;;;;;;11.54;100.00;99405.02;105467;1257;69438;-70
2023/04/06 18:01:44;;;;;;;18.90;12.80;;;;;;;11.50;100.00;99410.35;105433;1259;73940;-70
2023/04/06 18:04:12;;;;;;;17.40;12.50;;;;;;;11.52;100.00;99411.58;105401;1259;60542;-70
2023/04/06 18:06:41;;;;;;;20.70;13.80;;;;;;;11.48;100.00;99411.73;105446;1259;61859;-69
2023/04/06 18:09:15;;;;;;;15.20;11.50;;;;;;;11.41;100.00;99412.56;105366;1259;73830;-68
2023/04/06 18:11:44;;;;;;;17.10;11.70;;;;;;;11.37;100.00;99412.55;105321;1257;69059;-70
2023/04/06 18:14:14;;;;;;;17.10;14.00;;;;;;;11.32;100.00;99413.38;105522;1257;73999;-69
2023/04/06 18:16:43;;;;;;;16.30;13.10;;;;;;;11.26;100.00;99415.39;105435;1259;62301;-70
2023/04/06 18:19:11;;;;;;;20.80;13.00;;;;;;;11.17;100.00;99413.78;105424;1257;60978;-69
2023/04/06 18:21:40;;;;;;;17.60;12.60;;;;;;;11.09;100.00;99412.23;105381;1257;73648;-69
2023/04/06 18:24:13;;;;;;;15.30;12.50;;;;;;;11.05;100.00;99413.38;105399;1259;66470;-70
2023/04/06 18:27:00;;;;;;;15.60;12.80;;;;;;;11.01;100.00;99414.55;105397;1259;72767;-71
2023/04/06 18:29:29;;;;;;;22.40;15.20;;;;;;;11.00;100.00;99415.11;105328;1257;61710;-80
2023/04/06 18:32:01;;;;;;;23.10;14.50;;;;;;;10.95;100.00;99416.27;105723;1259;60496;-79
2023/04/06 18:34:44;;;;;;;18.70;13.20;;;;;;;10.89;100.00;99417.10;105530;1256;73114;-77
2023/04/06 18:37:20;;;;;;;14.40;11.20;;;;;;;10.82;100.00;99422.43;105611;1257;68016;-76
2023/04/06 18:39:49;;;;;;;14.20;10.20;;;;;;;10.79;100.00;99424.61;105638;1259;73655;-79
2023/04/06 18:42:18;;;;;;;13.70;9.40;;;;;;;10.73;100.00;99424.88;105727;1257;61735;-80
2023/04/06 18:44:46;;;;;;;12.80;10.60;;;;;;;10.66;100.00;99424.07;105654;1262;60433;-77
2023/04/06 18:47:15;;;;;;;11.80;9.10;;;;;;;10.62;100.00;99430.49;105780;1260;75005;-75
2023/04/06 18:49:44;;;;;;;9.20;7.50;;;;;;;10.56;100.00;99430.42;105684;1262;67269;-73
2023/04/06 18:52:12;;;;;;;6.90;6.10;;;;;;;10.54;100.00;99433.88;105952;1259;74180;-75
2023/04/06 18:54:42;;;;;;;7.50;6.50;;;;;;;10.56;100.00;99434.36;105669;1257;60853;-78
2023/04/06 18:57:10;;;;;;;7.50;6.10;;;;;;;10.56;100.00;99438.92;105695;1257;62080;-74
2023/04/06 18:59:39;;;;;;;10.00;7.80;;;;;;;10.56;100.00;99443.93;105895;1257;75712;-73
2023/04/06 19:02:08;;;;;;;8.40;7.40;;;;;;;10.55;100.00;99438.44;105739;1259;69249;-74
2023/04/06 19:04:36;;;;;;;12.30;9.20;;;;;;;10.53;100.00;99443.91;105618;1256;72254;-75
2023/04/06 19:07:05;;;;;;;11.50;8.50;;;;;;;10.46;100.00;99448.16;105599;1256;63600;-74
2023/04/06 19:09:40;;;;;;;6.50;5.90;;;;;;;10.40;100.00;99451.48;105797;1259;61916;-76
2023/04/06 19:12:08;;;;;;;9.10;6.30;;;;;;;10.35;100.00;99455.42;105445;1262;74597;-74
2023/04/06 19:14:36;;;;;;;6.80;6.20;;;;;;;10.29;100.00;99461.00;105868;1257;68988;-78
2023/04/06 19:17:10;;;;;;;10.50;6.70;;;;;;;10.24;100.00;99462.51;105775;1262;72962;-75
2023/04/06 19:19:39;;;;;;;7.70;5.90;;;;;;;10.18;100.00;99465.17;105704;1255;63368;-73
2023/04/06 19:22:09;;;;;;;11.70;10.40;;;;;;;10.13;100.00;99466.05;105634;1257;61751;-73
2023/04/06 19:24:39;;;;;;;8.40;7.60;;;;;;;10.10;100.00;99468.83;105538;1262;74454;-76
2023/04/06 19:27:08;;;;;;;8.80;8.00;;;;;;;10.09;100.00;99468.71;105566;1262;70111;-73
2023/04/06 19:29:42;;;;;;;9.80;7.80;;;;;;;10.08;100.00;99472.09;105667;1259;74373;-75
2023/04/06 19:32:11;;;;;;;10.40;9.40;;;;;;;10.11;100.00;99470.45;105759;1257;62262;-76
2023/04/06 19:34:39;;;;;;;15.60;13.50;;;;;;;10.14;100.00;99475.90;105633;1258;60963;-73
2023/04/06 19:37:08;;;;;;;19.50;17.60;;;;;;;10.12;100.00;99479.38;105783;1259;75488;-73
2023/04/06 19:39:37;;;;;;;14.70;13.30;;;;;;;10.10;100.00;99484.52;106107;1261;70020;-73
2023/04/06 19:42:06;;;;;;;18.20;16.60;;;;;;;10.12;100.00;99488.14;105680;1257;73387;-72
2023/04/06 19:44:34;;;;;;;19.00;17.30;;;;;;;10.15;100.00;99489.42;105775;1257;63834;-73
2023/04/06 19:47:03;;;;;;;24.30;21.90;;;;;;;10.17;100.00;99492.15;105867;1259;60516;-73
2023/04/06 19:49:33;;;;;;;26.50;23.80;;;;;;;10.15;100.00;99495.35;105809;1261;75233;-74
2023/04/06 19:52:01;;;;;;;23.10;20.80;;;;;;;10.14;100.00;99499.94;105769;1262;68697;-75
2023/04/06 19:54:30;;;;;;;19.90;17.10;;;;;;;10.15;100.00;99497.98;105660;1262;74013;-75
2023/04/06 19:56:58;;;;;;;16.30;13.90;;;;;;;10.10;100.00;99501.71;105714;1257;61097;-71
2023/04/06 19:59:26;;;;;;;16.60;13.70;;;;;;;10.04;100.00;99505.31;105438;1258;61293;-74
2023/04/06 20:01:54;;;;;;;21.10;17.40;;;;;;;9.98;100.00;99509.53;105812;1259;75455;-71
2023/04/06 20:04:23;;;;;;;24.50;18.40;;;;;;;9.90;100.00;99505.77;105790;1259;66478;-74
2023/04/06 20:06:52;;;;;;;26.90;18.70;;;;;;;9.85;100.00;99507.64;105801;1256;73169;-75
2023/04/06 20:09:21;;;;;;;28.30;20.20;;;;;;;9.85;100.00;99511.98;105827;1259;60594;-75
2023/04/06 20:11:51;;;;;;;25.50;21.00;;;;;;;9.84;100.00;99516.60;105522;1256;61246;-74
2023/04/06 20:14:20;;;;;;;32.70;21.90;;;;;;;9.78;100.00;99516.47;105614;1257;75131;-78
2023/04/06 20:16:51;;;;;;;31.50;20.60;;;;;;;9.67;100.00;99520.46;105844;1259;68874;-78
2023/04/06 20:19:21;;;;;;;27.00;18.70;;;;;;;9.56;100.00;99524.33;105927;1257;73139;-76
2023/04/06 20:21:49;;;;;;;29.00;18.50;;;;;;;9.46;100.00;99522.85;105681;1257;63835;-74